sensor_id;sensor_type;location;lat;lon;timestamp;temperature;humidity
18412;DHT22;27097;51.738;19.472;2023-01-15T00:01:37;21.70;61.20
18412;DHT22;27097;51.738;19.472;2023-01-15T00:04:05;21.70;61.90
18412;DHT22;27097;51.738;19.472;2023-01-15T00:06:35;21.70;61.40
18412;DHT22;27097;51.738;19.472;2023-01-15T00:09:03;21.70;61.50
18412;DHT22;27097;51.738;19.472;2023-01-15T00:11:30;21.70;61.20
18412;DHT22;27097;51.738;19.472;2023-01-15T00:13:57;21.70;61.00
18412;DHT22;27097;51.738;19.472;2023-01-15T00:16:25;21.70;60.80
18412;DHT22;27097;51.738;19.472;2023-01-15T00:18:54;21.70;61.50
18412;DHT22;27097;51.738;19.472;2023-01-15T00:21:22;21.70;60.90
18412;DHT22;27097;51.738;19.472;2023-01-15T00:23:50;21.70;62.10
18412;DHT22;27097;51.738;19.472;2023-01-15T00:26:35;21.70;61.10
18412;DHT22;27097;51.738;19.472;2023-01-15T00:29:20;21.70;61.10
18412;DHT22;27097;51.738;19.472;2023-01-15T00:31:53;21.70;61.40
18412;DHT22;27097;51.738;19.472;2023-01-15T00:34:22;21.70;60.60
18412;DHT22;27097;51.738;19.472;2023-01-15T00:36:49;21.70;61.00
18412;DHT22;27097;51.738;19.472;2023-01-15T00:39:15;21.70;61.10
18412;DHT22;27097;51.738;19.472;2023-01-15T00:41:42;21.70;61.20
18412;DHT22;27097;51.738;19.472;2023-01-15T00:44:09;21.70;61.10
18412;DHT22;27097;51.738;19.472;2023-01-15T00:46:36;21.70;61.20
18412;DHT22;27097;51.738;19.472;2023-01-15T00:49:03;21.70;60.60
18412;DHT22;27097;51.738;19.472;2023-01-15T00:51:32;21.70;60.90
18412;DHT22;27097;51.738;19.472;2023-01-15T00:53:59;21.70;60.10
18412;DHT22;27097;51.738;19.472;2023-01-15T00:56:26;21.70;60.20
18412;DHT22;27097;51.738;19.472;2023-01-15T00:58:53;21.70;60.70
18412;DHT22;27097;51.738;19.472;2023-01-15T01:01:20;21.70;60.60
18412;DHT22;27097;51.738;19.472;2023-01-15T01:03:47;21.70;60.30
18412;DHT22;27097;51.738;19.472;2023-01-15T01:06:17;21.60;60.30
18412;DHT22;27097;51.738;19.472;2023-01-15T01:08:45;21.60;60.50
18412;DHT22;27097;51.738;19.472;2023-01-15T01:11:14;21.60;60.50
18412;DHT22;27097;51.738;19.472;2023-01-15T01:13:41;21.70;60.00
18412;DHT22;27097;51.738;19.472;2023-01-15T01:16:22;21.60;60.20
18412;DHT22;27097;51.738;19.472;2023-01-15T01:18:49;21.60;59.60
18412;DHT22;27097;51.738;19.472;2023-01-15T01:21:17;21.60;59.10
18412;DHT22;27097;51.738;19.472;2023-01-15T01:23:45;21.60;58.90
18412;DHT22;27097;51.738;19.472;2023-01-15T01:26:12;21.60;58.60
18412;DHT22;27097;51.738;19.472;2023-01-15T01:28:39;21.60;58.50
18412;DHT22;27097;51.738;19.472;2023-01-15T01:31:06;21.50;58.60
18412;DHT22;27097;51.738;19.472;2023-01-15T01:33:33;21.50;58.00
18412;DHT22;27097;51.738;19.472;2023-01-15T01:36:01;21.50;58.40
18412;DHT22;27097;51.738;19.472;2023-01-15T01:38:27;21.50;57.80
18412;DHT22;27097;51.738;19.472;2023-01-15T01:40:56;21.40;57.90
18412;DHT22;27097;51.738;19.472;2023-01-15T01:43:25;21.40;57.70
18412;DHT22;27097;51.738;19.472;2023-01-15T01:45:52;21.40;57.50
18412;DHT22;27097;51.738;19.472;2023-01-15T01:48:24;21.40;58.30
18412;DHT22;27097;51.738;19.472;2023-01-15T01:50:53;21.40;63.40
18412;DHT22;27097;51.738;19.472;2023-01-15T01:53:22;21.40;66.40
18412;DHT22;27097;51.738;19.472;2023-01-15T01:55:52;21.40;66.90
18412;DHT22;27097;51.738;19.472;2023-01-15T01:58:21;21.40;67.30
18412;DHT22;27097;51.738;19.472;2023-01-15T02:00:51;21.50;67.00
18412;DHT22;27097;51.738;19.472;2023-01-15T02:03:20;21.50;66.40
18412;DHT22;27097;51.738;19.472;2023-01-15T02:05:51;21.50;66.70
18412;DHT22;27097;51.738;19.472;2023-01-15T02:08:18;21.50;65.80
18412;DHT22;27097;51.738;19.472;2023-01-15T02:10:49;21.50;66.10
18412;DHT22;27097;51.738;19.472;2023-01-15T02:13:22;21.50;65.20
18412;DHT22;27097;51.738;19.472;2023-01-15T02:15:54;21.50;64.50
18412;DHT22;27097;51.738;19.472;2023-01-15T02:18:30;21.50;64.10
18412;DHT22;27097;51.738;19.472;2023-01-15T02:21:02;21.50;63.20
18412;DHT22;27097;51.738;19.472;2023-01-15T02:24:00;21.40;62.30
18412;DHT22;27097;51.738;19.472;2023-01-15T02:26:54;21.40;62.50
18412;DHT22;27097;51.738;19.472;2023-01-15T02:29:28;21.50;65.30
18412;DHT22;27097;51.738;19.472;2023-01-15T02:32:00;21.50;66.00
18412;DHT22;27097;51.738;19.472;2023-01-15T02:34:31;21.50;66.60
18412;DHT22;27097;51.738;19.472;2023-01-15T02:37:02;21.50;67.30
18412;DHT22;27097;51.738;19.472;2023-01-15T02:39:32;21.60;67.40
18412;DHT22;27097;51.738;19.472;2023-01-15T02:42:03;21.60;67.10
18412;DHT22;27097;51.738;19.472;2023-01-15T02:44:34;21.60;66.90
18412;DHT22;27097;51.738;19.472;2023-01-15T02:47:02;21.60;67.40
18412;DHT22;27097;51.738;19.472;2023-01-15T02:49:30;21.60;67.20
18412;DHT22;27097;51.738;19.472;2023-01-15T02:52:00;21.60;67.40
18412;DHT22;27097;51.738;19.472;2023-01-15T02:54:45;21.60;67.40
18412;DHT22;27097;51.738;19.472;2023-01-15T02:57:15;21.60;66.70
18412;DHT22;27097;51.738;19.472;2023-01-15T02:59:46;21.60;67.10
18412;DHT22;27097;51.738;19.472;2023-01-15T03:02:18;21.60;67.20
18412;DHT22;27097;51.738;19.472;2023-01-15T03:04:48;21.70;67.60
18412;DHT22;27097;51.738;19.472;2023-01-15T03:07:20;21.70;66.60
18412;DHT22;27097;51.738;19.472;2023-01-15T03:09:48;21.70;66.70
18412;DHT22;27097;51.738;19.472;2023-01-15T03:12:22;21.70;67.10
18412;DHT22;27097;51.738;19.472;2023-01-15T03:14:56;21.70;66.80
18412;DHT22;27097;51.738;19.472;2023-01-15T03:17:33;21.70;66.70
18412;DHT22;27097;51.738;19.472;2023-01-15T03:20:05;21.70;63.60
18412;DHT22;27097;51.738;19.472;2023-01-15T03:22:38;21.60;62.50
18412;DHT22;27097;51.738;19.472;2023-01-15T03:25:08;21.60;62.70
18412;DHT22;27097;51.738;19.472;2023-01-15T03:27:38;21.60;62.50
18412;DHT22;27097;51.738;19.472;2023-01-15T03:30:07;21.60;63.00
18412;DHT22;27097;51.738;19.472;2023-01-15T03:32:35;21.60;63.60
18412;DHT22;27097;51.738;19.472;2023-01-15T03:35:06;21.50;62.80
18412;DHT22;27097;51.738;19.472;2023-01-15T03:37:35;21.50;62.70
18412;DHT22;27097;51.738;19.472;2023-01-15T03:40:03;21.50;62.40
18412;DHT22;27097;51.738;19.472;2023-01-15T03:42:43;21.50;62.40
18412;DHT22;27097;51.738;19.472;2023-01-15T03:45:13;21.50;62.10
18412;DHT22;27097;51.738;19.472;2023-01-15T03:47:50;21.50;62.10
18412;DHT22;27097;51.738;19.472;2023-01-15T03:50:26;21.50;61.80
18412;DHT22;27097;51.738;19.472;2023-01-15T03:52:57;21.50;61.90
18412;DHT22;27097;51.738;19.472;2023-01-15T03:55:38;21.50;61.40
18412;DHT22;27097;51.738;19.472;2023-01-15T03:58:10;21.40;60.70
18412;DHT22;27097;51.738;19.472;2023-01-15T04:00:42;21.50;61.10
18412;DHT22;27097;51.738;19.472;2023-01-15T04:03:12;21.50;60.90
18412;DHT22;27097;51.738;19.472;2023-01-15T04:05:41;21.40;60.90
18412;DHT22;27097;51.738;19.472;2023-01-15T04:08:10;21.40;60.40
18412;DHT22;27097;51.738;19.472;2023-01-15T04:10:49;21.40;61.00
18412;DHT22;27097;51.738;19.472;2023-01-15T04:13:18;21.40;60.80
18412;DHT22;27097;51.738;19.472;2023-01-15T04:15:44;21.40;60.60
18412;DHT22;27097;51.738;19.472;2023-01-15T04:18:11;21.40;60.10
18412;DHT22;27097;51.738;19.472;2023-01-15T04:20:38;21.40;60.50
18412;DHT22;27097;51.738;19.472;2023-01-15T04:23:05;21.40;60.20
18412;DHT22;27097;51.738;19.472;2023-01-15T04:25:32;21.40;60.10
18412;DHT22;27097;51.738;19.472;2023-01-15T04:27:59;21.40;59.90
18412;DHT22;27097;51.738;19.472;2023-01-15T04:30:27;21.40;60.30
18412;DHT22;27097;51.738;19.472;2023-01-15T04:32:54;21.40;60.20
18412;DHT22;27097;51.738;19.472;2023-01-15T04:35:21;21.40;60.30
18412;DHT22;27097;51.738;19.472;2023-01-15T04:37:47;21.40;60.10
18412;DHT22;27097;51.738;19.472;2023-01-15T04:40:14;21.40;60.00
18412;DHT22;27097;51.738;19.472;2023-01-15T04:42:55;21.40;59.90
18412;DHT22;27097;51.738;19.472;2023-01-15T04:45:42;21.40;60.20
18412;DHT22;27097;51.738;19.472;2023-01-15T04:48:09;21.40;60.00
18412;DHT22;27097;51.738;19.472;2023-01-15T04:50:37;21.40;59.70
18412;DHT22;27097;51.738;19.472;2023-01-15T04:53:03;21.40;60.00
18412;DHT22;27097;51.738;19.472;2023-01-15T04:55:31;21.40;60.40
18412;DHT22;27097;51.738;19.472;2023-01-15T04:57:57;21.40;60.90
18412;DHT22;27097;51.738;19.472;2023-01-15T05:00:24;21.40;60.00
18412;DHT22;27097;51.738;19.472;2023-01-15T05:02:52;21.40;60.30
18412;DHT22;27097;51.738;19.472;2023-01-15T05:05:19;21.40;60.20
18412;DHT22;27097;51.738;19.472;2023-01-15T05:07:46;21.40;59.70
18412;DHT22;27097;51.738;19.472;2023-01-15T05:10:13;21.40;60.10
18412;DHT22;27097;51.738;19.472;2023-01-15T05:12:40;21.40;59.80
18412;DHT22;27097;51.738;19.472;2023-01-15T05:15:07;21.40;60.30
18412;DHT22;27097;51.738;19.472;2023-01-15T05:17:34;21.40;60.50
18412;DHT22;27097;51.738;19.472;2023-01-15T05:20:03;21.40;59.80
18412;DHT22;27097;51.738;19.472;2023-01-15T05:22:29;21.40;60.20
18412;DHT22;27097;51.738;19.472;2023-01-15T05:24:56;21.40;60.60
18412;DHT22;27097;51.738;19.472;2023-01-15T05:27:23;21.40;60.60
18412;DHT22;27097;51.738;19.472;2023-01-15T05:29:50;21.40;60.60
18412;DHT22;27097;51.738;19.472;2023-01-15T05:32:17;21.40;60.40
18412;DHT22;27097;51.738;19.472;2023-01-15T05:34:43;21.40;60.20
18412;DHT22;27097;51.738;19.472;2023-01-15T05:37:11;21.40;60.00
18412;DHT22;27097;51.738;19.472;2023-01-15T05:39:38;21.40;60.00
18412;DHT22;27097;51.738;19.472;2023-01-15T05:42:05;21.40;59.90
18412;DHT22;27097;51.738;19.472;2023-01-15T05:44:32;21.40;59.80
18412;DHT22;27097;51.738;19.472;2023-01-15T05:47:00;21.40;60.00
18412;DHT22;27097;51.738;19.472;2023-01-15T05:49:30;21.40;60.00
18412;DHT22;27097;51.738;19.472;2023-01-15T05:51:58;21.40;60.80
18412;DHT22;27097;51.738;19.472;2023-01-15T05:54:28;21.40;59.90
18412;DHT22;27097;51.738;19.472;2023-01-15T05:56:56;21.40;60.00
18412;DHT22;27097;51.738;19.472;2023-01-15T05:59:24;21.40;60.20
18412;DHT22;27097;51.738;19.472;2023-01-15T06:01:52;21.40;60.00
18412;DHT22;27097;51.738;19.472;2023-01-15T06:04:20;21.40;60.00
18412;DHT22;27097;51.738;19.472;2023-01-15T06:06:47;21.40;60.00
18412;DHT22;27097;51.738;19.472;2023-01-15T06:09:14;21.40;60.10
18412;DHT22;27097;51.738;19.472;2023-01-15T06:11:43;21.40;60.10
18412;DHT22;27097;51.738;19.472;2023-01-15T06:14:10;21.40;60.00
18412;DHT22;27097;51.738;19.472;2023-01-15T06:16:38;21.40;60.10
18412;DHT22;27097;51.738;19.472;2023-01-15T06:19:05;21.40;59.90
18412;DHT22;27097;51.738;19.472;2023-01-15T06:21:33;21.40;60.10
18412;DHT22;27097;51.738;19.472;2023-01-15T06:24:01;21.40;60.00
18412;DHT22;27097;51.738;19.472;2023-01-15T06:26:28;21.40;60.20
18412;DHT22;27097;51.738;19.472;2023-01-15T06:28:56;21.40;60.10
18412;DHT22;27097;51.738;19.472;2023-01-15T06:31:23;21.40;60.10
18412;DHT22;27097;51.738;19.472;2023-01-15T06:33:51;21.40;59.90
18412;DHT22;27097;51.738;19.472;2023-01-15T06:36:20;21.40;60.00
18412;DHT22;27097;51.738;19.472;2023-01-15T06:38:47;21.40;60.10
18412;DHT22;27097;51.738;19.472;2023-01-15T06:41:16;21.40;59.90
18412;DHT22;27097;51.738;19.472;2023-01-15T06:44:01;21.40;59.70
18412;DHT22;27097;51.738;19.472;2023-01-15T06:46:47;21.40;60.00
18412;DHT22;27097;51.738;19.472;2023-01-15T06:49:33;21.40;60.10
18412;DHT22;27097;51.738;19.472;2023-01-15T06:52:00;21.40;59.80
18412;DHT22;27097;51.738;19.472;2023-01-15T06:54:27;21.40;60.10
18412;DHT22;27097;51.738;19.472;2023-01-15T06:56:54;21.40;59.80
18412;DHT22;27097;51.738;19.472;2023-01-15T06:59:22;21.40;59.90
18412;DHT22;27097;51.738;19.472;2023-01-15T07:01:49;21.40;59.80
18412;DHT22;27097;51.738;19.472;2023-01-15T07:04:16;21.40;59.70
18412;DHT22;27097;51.738;19.472;2023-01-15T07:06:43;21.40;59.50
18412;DHT22;27097;51.738;19.472;2023-01-15T07:09:10;21.40;59.60
18412;DHT22;27097;51.738;19.472;2023-01-15T07:11:37;21.40;59.50
18412;DHT22;27097;51.738;19.472;2023-01-15T07:14:14;21.40;59.80
18412;DHT22;27097;51.738;19.472;2023-01-15T07:16:42;21.30;59.50
18412;DHT22;27097;51.738;19.472;2023-01-15T07:19:09;21.30;59.50
18412;DHT22;27097;51.738;19.472;2023-01-15T07:21:35;21.30;59.50
18412;DHT22;27097;51.738;19.472;2023-01-15T07:24:03;21.30;59.60
18412;DHT22;27097;51.738;19.472;2023-01-15T07:26:30;21.30;59.80
18412;DHT22;27097;51.738;19.472;2023-01-15T07:28:57;21.30;60.20
18412;DHT22;27097;51.738;19.472;2023-01-15T07:31:23;21.40;60.20
18412;DHT22;27097;51.738;19.472;2023-01-15T07:33:51;21.40;60.00
18412;DHT22;27097;51.738;19.472;2023-01-15T07:36:18;21.40;60.00
18412;DHT22;27097;51.738;19.472;2023-01-15T07:38:45;21.40;59.50
18412;DHT22;27097;51.738;19.472;2023-01-15T07:41:12;21.30;59.70
18412;DHT22;27097;51.738;19.472;2023-01-15T07:43:56;21.30;59.90
18412;DHT22;27097;51.738;19.472;2023-01-15T07:46:40;21.40;60.40
18412;DHT22;27097;51.738;19.472;2023-01-15T07:49:26;21.40;60.30
18412;DHT22;27097;51.738;19.472;2023-01-15T07:52:10;21.40;60.00
18412;DHT22;27097;51.738;19.472;2023-01-15T07:54:36;21.40;59.80
18412;DHT22;27097;51.738;19.472;2023-01-15T07:57:03;21.40;60.90
18412;DHT22;27097;51.738;19.472;2023-01-15T07:59:31;21.40;60.20
18412;DHT22;27097;51.738;19.472;2023-01-15T08:01:58;21.40;60.00
18412;DHT22;27097;51.738;19.472;2023-01-15T08:04:26;21.40;60.10
18412;DHT22;27097;51.738;19.472;2023-01-15T08:06:52;21.40;60.50
18412;DHT22;27097;51.738;19.472;2023-01-15T08:09:19;21.40;60.30
18412;DHT22;27097;51.738;19.472;2023-01-15T08:11:46;21.40;60.20
18412;DHT22;27097;51.738;19.472;2023-01-15T08:14:30;21.40;59.90
18412;DHT22;27097;51.738;19.472;2023-01-15T08:17:14;21.40;59.80
18412;DHT22;27097;51.738;19.472;2023-01-15T08:19:43;21.50;59.60
18412;DHT22;27097;51.738;19.472;2023-01-15T08:22:10;21.40;59.60
18412;DHT22;27097;51.738;19.472;2023-01-15T08:24:37;21.50;60.20
18412;DHT22;27097;51.738;19.472;2023-01-15T08:27:04;21.50;59.80
18412;DHT22;27097;51.738;19.472;2023-01-15T08:29:31;21.40;59.90
18412;DHT22;27097;51.738;19.472;2023-01-15T08:31:58;21.50;59.80
18412;DHT22;27097;51.738;19.472;2023-01-15T08:34:25;21.50;59.40
18412;DHT22;27097;51.738;19.472;2023-01-15T08:36:53;21.50;59.30
18412;DHT22;27097;51.738;19.472;2023-01-15T08:39:24;21.50;59.20
18412;DHT22;27097;51.738;19.472;2023-01-15T08:41:51;21.50;59.50
18412;DHT22;27097;51.738;19.472;2023-01-15T08:44:18;21.50;59.30
18412;DHT22;27097;51.738;19.472;2023-01-15T08:46:46;21.50;59.20
18412;DHT22;27097;51.738;19.472;2023-01-15T08:49:13;21.50;58.80
18412;DHT22;27097;51.738;19.472;2023-01-15T08:51:40;21.50;59.30
18412;DHT22;27097;51.738;19.472;2023-01-15T08:54:08;21.50;59.70
18412;DHT22;27097;51.738;19.472;2023-01-15T08:56:35;21.50;61.70
18412;DHT22;27097;51.738;19.472;2023-01-15T08:59:03;21.50;63.90
18412;DHT22;27097;51.738;19.472;2023-01-15T09:01:30;21.50;66.50
18412;DHT22;27097;51.738;19.472;2023-01-15T09:03:58;21.50;67.80
18412;DHT22;27097;51.738;19.472;2023-01-15T09:06:25;21.60;69.30
18412;DHT22;27097;51.738;19.472;2023-01-15T09:08:52;21.60;70.10
18412;DHT22;27097;51.738;19.472;2023-01-15T09:11:20;21.60;70.70
18412;DHT22;27097;51.738;19.472;2023-01-15T09:13:47;21.60;70.10
18412;DHT22;27097;51.738;19.472;2023-01-15T09:16:16;21.60;70.30
18412;DHT22;27097;51.738;19.472;2023-01-15T09:18:43;21.60;69.80
18412;DHT22;27097;51.738;19.472;2023-01-15T09:21:10;21.60;69.00
18412;DHT22;27097;51.738;19.472;2023-01-15T09:23:39;21.70;69.00
18412;DHT22;27097;51.738;19.472;2023-01-15T09:26:25;21.70;68.70
18412;DHT22;27097;51.738;19.472;2023-01-15T09:28:53;21.70;68.70
18412;DHT22;27097;51.738;19.472;2023-01-15T09:31:20;21.70;68.00
18412;DHT22;27097;51.738;19.472;2023-01-15T09:33:47;21.70;67.70
18412;DHT22;27097;51.738;19.472;2023-01-15T09:36:14;21.80;67.20
18412;DHT22;27097;51.738;19.472;2023-01-15T09:38:41;21.80;66.00
18412;DHT22;27097;51.738;19.472;2023-01-15T09:41:11;21.80;66.10
18412;DHT22;27097;51.738;19.472;2023-01-15T09:44:06;21.70;65.40
18412;DHT22;27097;51.738;19.472;2023-01-15T09:46:40;21.70;65.10
18412;DHT22;27097;51.738;19.472;2023-01-15T09:49:22;21.70;64.90
18412;DHT22;27097;51.738;19.472;2023-01-15T09:51:56;21.70;65.20
18412;DHT22;27097;51.738;19.472;2023-01-15T09:54:38;21.70;65.70
18412;DHT22;27097;51.738;19.472;2023-01-15T09:57:10;21.70;65.80
18412;DHT22;27097;51.738;19.472;2023-01-15T09:59:41;21.70;65.50
18412;DHT22;27097;51.738;19.472;2023-01-15T10:02:18;21.70;65.00
18412;DHT22;27097;51.738;19.472;2023-01-15T10:04:50;21.70;64.70
18412;DHT22;27097;51.738;19.472;2023-01-15T10:07:22;21.70;64.70
18412;DHT22;27097;51.738;19.472;2023-01-15T10:09:56;21.70;64.90
18412;DHT22;27097;51.738;19.472;2023-01-15T10:12:27;21.70;64.80
18412;DHT22;27097;51.738;19.472;2023-01-15T10:15:26;21.70;64.90
18412;DHT22;27097;51.738;19.472;2023-01-15T10:17:55;21.70;64.70
18412;DHT22;27097;51.738;19.472;2023-01-15T10:20:37;21.70;64.70
18412;DHT22;27097;51.738;19.472;2023-01-15T10:23:15;21.70;64.40
18412;DHT22;27097;51.738;19.472;2023-01-15T10:25:48;21.70;64.70
18412;DHT22;27097;51.738;19.472;2023-01-15T10:28:19;21.70;64.20
18412;DHT22;27097;51.738;19.472;2023-01-15T10:30:53;21.70;63.70
18412;DHT22;27097;51.738;19.472;2023-01-15T10:33:51;21.70;63.90
18412;DHT22;27097;51.738;19.472;2023-01-15T10:36:23;21.70;64.00
18412;DHT22;27097;51.738;19.472;2023-01-15T10:38:58;21.70;63.40
18412;DHT22;27097;51.738;19.472;2023-01-15T10:41:34;21.70;63.40
18412;DHT22;27097;51.738;19.472;2023-01-15T10:44:09;21.70;63.60
18412;DHT22;27097;51.738;19.472;2023-01-15T10:46:43;21.70;63.30
18412;DHT22;27097;51.738;19.472;2023-01-15T10:49:16;21.70;62.80
18412;DHT22;27097;51.738;19.472;2023-01-15T10:51:44;21.70;63.60
18412;DHT22;27097;51.738;19.472;2023-01-15T10:54:19;21.70;63.90
18412;DHT22;27097;51.738;19.472;2023-01-15T10:56:52;21.70;64.10
18412;DHT22;27097;51.738;19.472;2023-01-15T10:59:26;21.70;64.20
18412;DHT22;27097;51.738;19.472;2023-01-15T11:02:01;21.70;64.30
18412;DHT22;27097;51.738;19.472;2023-01-15T11:04:31;21.70;64.60
18412;DHT22;27097;51.738;19.472;2023-01-15T11:06:58;21.70;64.90
18412;DHT22;27097;51.738;19.472;2023-01-15T11:09:27;21.70;64.70
18412;DHT22;27097;51.738;19.472;2023-01-15T11:12:07;21.70;64.40
18412;DHT22;27097;51.738;19.472;2023-01-15T11:14:56;21.80;64.10
18412;DHT22;27097;51.738;19.472;2023-01-15T11:17:43;21.70;64.00
18412;DHT22;27097;51.738;19.472;2023-01-15T11:20:30;21.80;64.30
18412;DHT22;27097;51.738;19.472;2023-01-15T11:23:06;21.80;64.00
18412;DHT22;27097;51.738;19.472;2023-01-15T11:25:37;21.90;61.90
18412;DHT22;27097;51.738;19.472;2023-01-15T11:28:09;22.60;61.60
18412;DHT22;27097;51.738;19.472;2023-01-15T11:30:40;23.20;58.50
18412;DHT22;27097;51.738;19.472;2023-01-15T11:33:22;23.20;58.50
18412;DHT22;27097;51.738;19.472;2023-01-15T11:35:49;23.00;58.70
18412;DHT22;27097;51.738;19.472;2023-01-15T11:38:17;22.80;59.30
18412;DHT22;27097;51.738;19.472;2023-01-15T11:40:51;22.70;60.30
18412;DHT22;27097;51.738;19.472;2023-01-15T11:43:20;22.60;60.70
18412;DHT22;27097;51.738;19.472;2023-01-15T11:46:18;22.50;61.80
18412;DHT22;27097;51.738;19.472;2023-01-15T11:49:08;22.40;61.40
18412;DHT22;27097;51.738;19.472;2023-01-15T11:51:54;22.30;60.60
18412;DHT22;27097;51.738;19.472;2023-01-15T11:54:23;22.20;61.10
18412;DHT22;27097;51.738;19.472;2023-01-15T11:56:51;22.10;61.40
18412;DHT22;27097;51.738;19.472;2023-01-15T11:59:19;22.10;61.80
18412;DHT22;27097;51.738;19.472;2023-01-15T12:01:51;22.10;61.50
18412;DHT22;27097;51.738;19.472;2023-01-15T12:04:37;22.00;61.00
18412;DHT22;27097;51.738;19.472;2023-01-15T12:07:05;22.00;60.80
18412;DHT22;27097;51.738;19.472;2023-01-15T12:09:48;21.90;59.90
18412;DHT22;27097;51.738;19.472;2023-01-15T12:12:24;21.90;60.00
18412;DHT22;27097;51.738;19.472;2023-01-15T12:15:16;21.80;59.60
18412;DHT22;27097;51.738;19.472;2023-01-15T12:18:22;21.80;59.90
18412;DHT22;27097;51.738;19.472;2023-01-15T12:21:00;21.80;60.60
18412;DHT22;27097;51.738;19.472;2023-01-15T12:23:43;21.70;60.10
18412;DHT22;27097;51.738;19.472;2023-01-15T12:26:19;21.70;60.60
18412;DHT22;27097;51.738;19.472;2023-01-15T12:28:55;21.70;60.90
18412;DHT22;27097;51.738;19.472;2023-01-15T12:31:27;21.70;61.60
18412;DHT22;27097;51.738;19.472;2023-01-15T12:33:58;21.70;63.30
18412;DHT22;27097;51.738;19.472;2023-01-15T12:36:32;21.70;64.00
18412;DHT22;27097;51.738;19.472;2023-01-15T12:39:05;21.80;63.80
18412;DHT22;27097;51.738;19.472;2023-01-15T12:41:35;21.80;64.10
18412;DHT22;27097;51.738;19.472;2023-01-15T12:44:20;21.80;64.80
18412;DHT22;27097;51.738;19.472;2023-01-15T12:47:09;21.80;64.80
18412;DHT22;27097;51.738;19.472;2023-01-15T12:49:43;21.80;65.40
18412;DHT22;27097;51.738;19.472;2023-01-15T12:52:18;21.80;65.40
18412;DHT22;27097;51.738;19.472;2023-01-15T12:54:51;21.80;66.00
18412;DHT22;27097;51.738;19.472;2023-01-15T12:57:33;21.80;66.50
18412;DHT22;27097;51.738;19.472;2023-01-15T13:00:03;21.80;66.30
18412;DHT22;27097;51.738;19.472;2023-01-15T13:02:36;21.80;65.40
18412;DHT22;27097;51.738;19.472;2023-01-15T13:05:15;21.80;65.50
18412;DHT22;27097;51.738;19.472;2023-01-15T13:07:49;21.80;66.30
18412;DHT22;27097;51.738;19.472;2023-01-15T13:10:21;21.80;66.00
18412;DHT22;27097;51.738;19.472;2023-01-15T13:12:51;21.80;65.70
18412;DHT22;27097;51.738;19.472;2023-01-15T13:15:20;21.80;65.70
18412;DHT22;27097;51.738;19.472;2023-01-15T13:17:58;21.80;65.70
18412;DHT22;27097;51.738;19.472;2023-01-15T13:20:37;21.80;66.10
18412;DHT22;27097;51.738;19.472;2023-01-15T13:23:22;21.80;66.30
18412;DHT22;27097;51.738;19.472;2023-01-15T13:26:04;21.80;65.70
18412;DHT22;27097;51.738;19.472;2023-01-15T13:31:39;21.90;65.30
18412;DHT22;27097;51.738;19.472;2023-01-15T13:34:13;21.90;64.50
18412;DHT22;27097;51.738;19.472;2023-01-15T13:36:43;21.90;64.80
18412;DHT22;27097;51.738;19.472;2023-01-15T13:39:17;21.90;64.30
18412;DHT22;27097;51.738;19.472;2023-01-15T13:41:47;21.90;64.30
18412;DHT22;27097;51.738;19.472;2023-01-15T13:44:36;21.90;64.10
18412;DHT22;27097;51.738;19.472;2023-01-15T13:47:09;21.90;65.20
18412;DHT22;27097;51.738;19.472;2023-01-15T13:49:39;21.90;64.40
18412;DHT22;27097;51.738;19.472;2023-01-15T13:52:19;21.90;64.70
18412;DHT22;27097;51.738;19.472;2023-01-15T13:54:51;21.90;64.90
18412;DHT22;27097;51.738;19.472;2023-01-15T13:57:23;21.90;65.20
18412;DHT22;27097;51.738;19.472;2023-01-15T13:59:50;21.90;64.80
18412;DHT22;27097;51.738;19.472;2023-01-15T14:02:26;21.90;65.30
18412;DHT22;27097;51.738;19.472;2023-01-15T14:04:53;21.90;65.30
18412;DHT22;27097;51.738;19.472;2023-01-15T14:07:29;21.90;65.10
18412;DHT22;27097;51.738;19.472;2023-01-15T14:10:08;21.90;65.40
18412;DHT22;27097;51.738;19.472;2023-01-15T14:12:42;21.90;66.20
18412;DHT22;27097;51.738;19.472;2023-01-15T14:15:24;21.90;66.70
18412;DHT22;27097;51.738;19.472;2023-01-15T14:18:16;21.90;68.00
18412;DHT22;27097;51.738;19.472;2023-01-15T14:20:56;21.90;68.80
18412;DHT22;27097;51.738;19.472;2023-01-15T14:23:43;21.90;70.40
18412;DHT22;27097;51.738;19.472;2023-01-15T14:26:21;21.90;71.10
18412;DHT22;27097;51.738;19.472;2023-01-15T14:29:06;22.00;71.50
18412;DHT22;27097;51.738;19.472;2023-01-15T14:31:47;22.00;72.40
18412;DHT22;27097;51.738;19.472;2023-01-15T14:34:17;22.00;72.70
18412;DHT22;27097;51.738;19.472;2023-01-15T14:36:50;22.00;73.00
18412;DHT22;27097;51.738;19.472;2023-01-15T14:39:25;22.00;73.00
18412;DHT22;27097;51.738;19.472;2023-01-15T14:42:03;22.10;75.40
18412;DHT22;27097;51.738;19.472;2023-01-15T14:44:56;22.10;75.90
18412;DHT22;27097;51.738;19.472;2023-01-15T14:47:28;22.10;76.90
18412;DHT22;27097;51.738;19.472;2023-01-15T14:50:02;22.10;77.30
18412;DHT22;27097;51.738;19.472;2023-01-15T14:52:30;22.20;78.50
18412;DHT22;27097;51.738;19.472;2023-01-15T14:54:57;22.20;79.00
18412;DHT22;27097;51.738;19.472;2023-01-15T14:57:26;22.20;78.70
18412;DHT22;27097;51.738;19.472;2023-01-15T14:59:56;22.30;79.80
18412;DHT22;27097;51.738;19.472;2023-01-15T15:02:29;22.30;80.40
18412;DHT22;27097;51.738;19.472;2023-01-15T15:04:59;22.20;78.10
18412;DHT22;27097;51.738;19.472;2023-01-15T15:07:29;22.30;75.80
18412;DHT22;27097;51.738;19.472;2023-01-15T15:10:03;22.20;75.00
18412;DHT22;27097;51.738;19.472;2023-01-15T15:12:37;22.20;75.60
18412;DHT22;27097;51.738;19.472;2023-01-15T15:15:10;22.30;73.70
18412;DHT22;27097;51.738;19.472;2023-01-15T15:17:48;22.40;73.10
18412;DHT22;27097;51.738;19.472;2023-01-15T15:20:23;22.40;71.30
18412;DHT22;27097;51.738;19.472;2023-01-15T15:22:55;22.40;69.80
18412;DHT22;27097;51.738;19.472;2023-01-15T15:25:26;22.40;69.20
18412;DHT22;27097;51.738;19.472;2023-01-15T15:28:03;22.40;68.10
18412;DHT22;27097;51.738;19.472;2023-01-15T15:30:33;22.40;66.90
18412;DHT22;27097;51.738;19.472;2023-01-15T15:33:03;22.40;67.20
18412;DHT22;27097;51.738;19.472;2023-01-15T15:35:31;22.30;66.90
18412;DHT22;27097;51.738;19.472;2023-01-15T15:38:03;22.30;67.20
18412;DHT22;27097;51.738;19.472;2023-01-15T15:40:32;22.30;66.30
18412;DHT22;27097;51.738;19.472;2023-01-15T15:43:11;22.30;66.80
18412;DHT22;27097;51.738;19.472;2023-01-15T15:45:57;22.20;67.10
18412;DHT22;27097;51.738;19.472;2023-01-15T15:48:42;22.30;66.80